sensor_id;sensor_type;location;lat;lon;timestamp;pressure;altitude;pressure_sealevel;temperature;humidity
42603;BME280;28233;55.748;48.752;2023-08-17T00:01:34;99338.16;;;18.38;100.00
42603;BME280;28233;55.748;48.752;2023-08-17T00:03:37;99337.78;;;18.40;100.00
42603;BME280;28233;55.748;48.752;2023-08-17T00:05:40;99335.00;;;18.40;100.00
42603;BME280;28233;55.748;48.752;2023-08-17T00:07:43;99334.22;;;18.39;100.00
42603;BME280;28233;55.748;48.752;2023-08-17T00:09:46;99330.22;;;18.40;100.00
42603;BME280;28233;55.748;48.752;2023-08-17T00:11:50;99324.66;;;18.40;100.00
42603;BME280;28233;55.748;48.752;2023-08-17T00:13:54;99325.47;;;18.41;100.00
42603;BME280;28233;55.748;48.752;2023-08-17T00:15:56;99327.88;;;18.42;100.00
42603;BME280;28233;55.748;48.752;2023-08-17T00:18:20;99329.03;;;18.41;100.00
42603;BME280;28233;55.748;48.752;2023-08-17T00:20:58;99333.03;;;18.40;100.00
42603;BME280;28233;55.748;48.752;2023-08-17T00:23:08;99335.38;;;18.38;100.00
42603;BME280;28233;55.748;48.752;2023-08-17T00:25:16;99350.06;;;18.38;100.00
42603;BME280;28233;55.748;48.752;2023-08-17T00:27:19;99348.91;;;18.40;100.00
42603;BME280;28233;55.748;48.752;2023-08-17T00:29:21;99340.09;;;18.34;100.00
42603;BME280;28233;55.748;48.752;2023-08-17T00:31:24;99348.91;;;18.40;100.00
42603;BME280;28233;55.748;48.752;2023-08-17T00:33:28;99341.69;;;18.35;100.00
42603;BME280;28233;55.748;48.752;2023-08-17T00:35:31;99351.28;;;18.41;100.00
42603;BME280;28233;55.748;48.752;2023-08-17T00:37:35;99350.06;;;18.38;100.00
42603;BME280;28233;55.748;48.752;2023-08-17T00:39:37;99352.84;;;18.38;100.00
42603;BME280;28233;55.748;48.752;2023-08-17T00:41:40;99348.13;;;18.39;100.00
42603;BME280;28233;55.748;48.752;2023-08-17T00:43:43;99354.06;;;18.41;100.00
42603;BME280;28233;55.748;48.752;2023-08-17T00:45:46;99356.50;;;18.43;100.00
42603;BME280;28233;55.748;48.752;2023-08-17T00:47:49;99357.28;;;18.43;100.00
42603;BME280;28233;55.748;48.752;2023-08-17T00:49:53;99355.31;;;18.44;100.00
42603;BME280;28233;55.748;48.752;2023-08-17T00:51:56;99361.25;;;18.42;100.00
42603;BME280;28233;55.748;48.752;2023-08-17T00:54:00;99362.44;;;18.41;100.00
42603;BME280;28233;55.748;48.752;2023-08-17T00:56:04;99364.84;;;18.43;100.00
42603;BME280;28233;55.748;48.752;2023-08-17T00:58:07;99366.81;;;18.42;100.00
42603;BME280;28233;55.748;48.752;2023-08-17T01:00:12;99356.47;;;18.39;100.00
42603;BME280;28233;55.748;48.752;2023-08-17T01:02:19;99360.03;;;18.40;100.00
42603;BME280;28233;55.748;48.752;2023-08-17T01:04:22;99354.84;;;18.38;100.00
42603;BME280;28233;55.748;48.752;2023-08-17T01:06:25;99366.72;;;18.35;100.00
42603;BME280;28233;55.748;48.752;2023-08-17T01:08:29;99375.44;;;18.33;100.00
42603;BME280;28233;55.748;48.752;2023-08-17T01:11:02;99377.81;;;18.31;100.00
42603;BME280;28233;55.748;48.752;2023-08-17T01:13:16;99375.72;;;18.25;100.00
42603;BME280;28233;55.748;48.752;2023-08-17T01:17:29;99376.81;;;18.16;100.00
42603;BME280;28233;55.748;48.752;2023-08-17T01:19:35;99382.72;;;18.11;100.00
42603;BME280;28233;55.748;48.752;2023-08-17T01:21:49;99379.50;;;18.09;100.00
42603;BME280;28233;55.748;48.752;2023-08-17T01:23:57;99383.44;;;18.08;100.00
42603;BME280;28233;55.748;48.752;2023-08-17T01:26:01;99389.75;;;18.05;100.00
42603;BME280;28233;55.748;48.752;2023-08-17T01:28:04;99382.19;;;18.02;100.00
42603;BME280;28233;55.748;48.752;2023-08-17T01:30:08;99385.31;;;18.01;100.00
42603;BME280;28233;55.748;48.752;2023-08-17T01:32:17;99381.75;;;18.00;100.00
42603;BME280;28233;55.748;48.752;2023-08-17T01:34:24;99382.94;;;17.99;100.00
42603;BME280;28233;55.748;48.752;2023-08-17T01:36:40;99391.31;;;18.03;100.00
42603;BME280;28233;55.748;48.752;2023-08-17T01:38:46;99390.13;;;18.04;100.00
42603;BME280;28233;55.748;48.752;2023-08-17T01:40:50;99397.75;;;18.07;100.00
42603;BME280;28233;55.748;48.752;2023-08-17T01:42:56;99390.63;;;18.09;100.00
42603;BME280;28233;55.748;48.752;2023-08-17T01:45:00;99397.41;;;18.12;100.00
42603;BME280;28233;55.748;48.752;2023-08-17T01:47:05;99398.63;;;18.14;100.00
42603;BME280;28233;55.748;48.752;2023-08-17T01:49:08;99403.81;;;18.16;100.00
42603;BME280;28233;55.748;48.752;2023-08-17T01:51:15;99407.84;;;18.19;100.00
42603;BME280;28233;55.748;48.752;2023-08-17T01:53:19;99402.28;;;18.19;100.00
42603;BME280;28233;55.748;48.752;2023-08-17T01:55:21;99414.66;;;18.25;100.00
42603;BME280;28233;55.748;48.752;2023-08-17T01:57:25;99405.94;;;18.26;100.00
42603;BME280;28233;55.748;48.752;2023-08-17T01:59:29;99409.59;;;18.30;100.00
42603;BME280;28233;55.748;48.752;2023-08-17T02:01:31;99408.81;;;18.33;100.00
42603;BME280;28233;55.748;48.752;2023-08-17T02:03:35;99408.88;;;18.37;100.00
42603;BME280;28233;55.748;48.752;2023-08-17T02:05:38;99409.31;;;18.39;100.00
42603;BME280;28233;55.748;48.752;2023-08-17T02:07:40;99404.22;;;18.45;100.00
42603;BME280;28233;55.748;48.752;2023-08-17T02:09:43;99400.66;;;18.48;100.00
42603;BME280;28233;55.748;48.752;2023-08-17T02:11:46;99407.88;;;18.52;100.00
42603;BME280;28233;55.748;48.752;2023-08-17T02:13:49;99413.09;;;18.57;100.00
42603;BME280;28233;55.748;48.752;2023-08-17T02:15:52;99410.38;;;18.61;100.00
42603;BME280;28233;55.748;48.752;2023-08-17T02:18:14;99429.09;;;18.64;100.00
42603;BME280;28233;55.748;48.752;2023-08-17T02:20:17;99419.56;;;18.65;100.00
42603;BME280;28233;55.748;48.752;2023-08-17T02:25:05;99418.47;;;18.73;100.00
42603;BME280;28233;55.748;48.752;2023-08-17T02:27:10;99413.00;;;18.77;100.00
42603;BME280;28233;55.748;48.752;2023-08-17T02:29:17;99424.16;;;18.80;100.00
42603;BME280;28233;55.748;48.752;2023-08-17T02:31:21;99421.78;;;18.83;100.00
42603;BME280;28233;55.748;48.752;2023-08-17T02:33:25;99417.06;;;18.87;100.00
42603;BME280;28233;55.748;48.752;2023-08-17T02:35:29;99423.50;;;18.91;100.00
42603;BME280;28233;55.748;48.752;2023-08-17T02:37:35;99426.31;;;18.94;100.00
42603;BME280;28233;55.748;48.752;2023-08-17T02:39:43;99422.38;;;18.99;100.00
42603;BME280;28233;55.748;48.752;2023-08-17T02:41:47;99418.81;;;19.02;100.00
42603;BME280;28233;55.748;48.752;2023-08-17T02:43:52;99423.66;;;19.05;100.00
42603;BME280;28233;55.748;48.752;2023-08-17T02:46:09;99430.88;;;19.10;100.00
42603;BME280;28233;55.748;48.752;2023-08-17T02:48:16;99430.47;;;19.11;100.00
42603;BME280;28233;55.748;48.752;2023-08-17T02:50:20;99434.88;;;19.16;100.00
42603;BME280;28233;55.748;48.752;2023-08-17T02:52:24;99436.09;;;19.18;100.00
42603;BME280;28233;55.748;48.752;2023-08-17T02:54:28;99439.69;;;19.19;100.00
42603;BME280;28233;55.748;48.752;2023-08-17T02:56:35;99430.53;;;19.18;100.00
42603;BME280;28233;55.748;48.752;2023-08-17T02:58:41;99430.16;;;19.20;100.00
42603;BME280;28233;55.748;48.752;2023-08-17T03:00:52;99430.97;;;19.20;100.00
42603;BME280;28233;55.748;48.752;2023-08-17T03:02:59;99430.22;;;19.27;100.00
42603;BME280;28233;55.748;48.752;2023-08-17T03:05:04;99427.50;;;19.31;100.00
42603;BME280;28233;55.748;48.752;2023-08-17T03:07:08;99423.16;;;19.33;100.00
42603;BME280;28233;55.748;48.752;2023-08-17T03:09:12;99435.50;;;19.36;100.00
42603;BME280;28233;55.748;48.752;2023-08-17T03:11:16;99431.56;;;19.40;100.00
42603;BME280;28233;55.748;48.752;2023-08-17T03:13:19;99437.16;;;19.44;100.00
42603;BME280;28233;55.748;48.752;2023-08-17T03:15:22;99435.22;;;19.48;100.00
42603;BME280;28233;55.748;48.752;2023-08-17T03:17:25;99430.06;;;19.54;100.00
42603;BME280;28233;55.748;48.752;2023-08-17T03:19:28;99432.50;;;19.59;100.00
42603;BME280;28233;55.748;48.752;2023-08-17T03:21:31;99433.34;;;19.63;100.00
42603;BME280;28233;55.748;48.752;2023-08-17T03:23:34;99440.56;;;19.68;100.00
42603;BME280;28233;55.748;48.752;2023-08-17T03:25:37;99432.63;;;19.70;100.00
42603;BME280;28233;55.748;48.752;2023-08-17T03:27:40;99432.69;;;19.77;100.00
42603;BME280;28233;55.748;48.752;2023-08-17T03:29:43;99434.34;;;19.81;100.00
42603;BME280;28233;55.748;48.752;2023-08-17T03:31:45;99453.91;;;19.89;100.00
42603;BME280;28233;55.748;48.752;2023-08-17T03:33:49;99443.94;;;19.88;100.00
42603;BME280;28233;55.748;48.752;2023-08-17T03:36:01;99454.38;;;19.94;100.00
42603;BME280;28233;55.748;48.752;2023-08-17T03:38:10;99462.31;;;19.96;100.00
42603;BME280;28233;55.748;48.752;2023-08-17T03:40:13;99461.53;;;19.95;100.00
42603;BME280;28233;55.748;48.752;2023-08-17T03:42:16;99459.94;;;19.98;100.00
42603;BME280;28233;55.748;48.752;2023-08-17T03:44:18;99459.56;;;19.99;100.00
42603;BME280;28233;55.748;48.752;2023-08-17T03:46:21;99459.59;;;20.03;100.00
42603;BME280;28233;55.748;48.752;2023-08-17T03:48:24;99460.41;;;20.07;100.00
42603;BME280;28233;55.748;48.752;2023-08-17T03:50:28;99465.25;;;20.14;100.00
42603;BME280;28233;55.748;48.752;2023-08-17T03:52:31;99468.06;;;20.17;100.00
42603;BME280;28233;55.748;48.752;2023-08-17T03:54:33;99461.31;;;20.22;100.00
42603;BME280;28233;55.748;48.752;2023-08-17T03:56:36;99469.31;;;20.23;100.00
42603;BME280;28233;55.748;48.752;2023-08-17T03:58:41;99472.09;;;20.27;100.00
42603;BME280;28233;55.748;48.752;2023-08-17T04:00:51;99483.28;;;20.31;100.00
42603;BME280;28233;55.748;48.752;2023-08-17T04:02:54;99474.16;;;20.34;100.00
42603;BME280;28233;55.748;48.752;2023-08-17T04:04:57;99480.13;;;20.36;100.00
42603;BME280;28233;55.748;48.752;2023-08-17T04:06:59;99477.38;;;20.39;100.00
42603;BME280;28233;55.748;48.752;2023-08-17T04:09:02;99479.38;;;20.42;100.00
42603;BME280;28233;55.748;48.752;2023-08-17T04:11:05;99478.22;;;20.47;99.16
42603;BME280;28233;55.748;48.752;2023-08-17T04:13:08;99481.00;;;20.51;99.04
42603;BME280;28233;55.748;48.752;2023-08-17T04:15:11;99481.84;;;20.51;98.57
42603;BME280;28233;55.748;48.752;2023-08-17T04:17:14;99487.84;;;20.53;98.11
42603;BME280;28233;55.748;48.752;2023-08-17T04:19:17;99483.50;;;20.59;97.74
42603;BME280;28233;55.748;48.752;2023-08-17T04:21:20;99479.16;;;20.65;98.18
42603;BME280;28233;55.748;48.752;2023-08-17T04:23:23;99478.78;;;20.71;98.40
42603;BME280;28233;55.748;48.752;2023-08-17T04:25:26;99484.38;;;20.78;98.32
42603;BME280;28233;55.748;48.752;2023-08-17T04:27:29;99488.41;;;20.84;98.03
42603;BME280;28233;55.748;48.752;2023-08-17T04:29:32;99484.84;;;20.87;97.36
42603;BME280;28233;55.748;48.752;2023-08-17T04:31:34;99488.44;;;20.91;96.54
42603;BME280;28233;55.748;48.752;2023-08-17T04:33:37;99480.88;;;20.92;95.64
42603;BME280;28233;55.748;48.752;2023-08-17T04:35:40;99486.44;;;20.92;95.75
42603;BME280;28233;55.748;48.752;2023-08-17T04:37:43;99489.66;;;20.97;95.17
42603;BME280;28233;55.748;48.752;2023-08-17T04:39:46;99477.31;;;21.02;95.19
42603;BME280;28233;55.748;48.752;2023-08-17T04:41:51;99494.50;;;21.07;95.13
42603;BME280;28233;55.748;48.752;2023-08-17T04:43:54;99493.31;;;21.16;94.81
42603;BME280;28233;55.748;48.752;2023-08-17T04:46:09;99494.94;;;21.20;93.87
42603;BME280;28233;55.748;48.752;2023-08-17T04:48:17;99490.97;;;21.25;93.52
42603;BME280;28233;55.748;48.752;2023-08-17T04:50:19;99485.38;;;21.28;93.52
42603;BME280;28233;55.748;48.752;2023-08-17T04:52:25;99486.59;;;21.35;93.14
42603;BME280;28233;55.748;48.752;2023-08-17T04:54:28;99492.63;;;21.44;93.13
42603;BME280;28233;55.748;48.752;2023-08-17T04:56:31;99490.63;;;21.51;92.99
42603;BME280;28233;55.748;48.752;2023-08-17T04:58:34;99491.47;;;21.63;92.71
42603;BME280;28233;55.748;48.752;2023-08-17T05:00:37;99499.09;;;21.73;92.39
42603;BME280;28233;55.748;48.752;2023-08-17T05:02:40;99502.66;;;21.77;92.21
42603;BME280;28233;55.748;48.752;2023-08-17T05:04:43;99495.47;;;21.80;91.27
42603;BME280;28233;55.748;48.752;2023-08-17T05:06:46;99491.47;;;21.84;90.88
42603;BME280;28233;55.748;48.752;2023-08-17T05:08:49;99493.88;;;21.93;91.54
42603;BME280;28233;55.748;48.752;2023-08-17T05:10:52;99497.88;;;21.95;90.23
42603;BME280;28233;55.748;48.752;2023-08-17T05:12:54;99498.28;;;22.01;90.11
42603;BME280;28233;55.748;48.752;2023-08-17T05:14:58;99493.50;;;22.09;89.86
42603;BME280;28233;55.748;48.752;2023-08-17T05:17:01;99504.69;;;22.16;89.68
42603;BME280;28233;55.748;48.752;2023-08-17T05:19:04;99507.13;;;22.25;89.14
42603;BME280;28233;55.748;48.752;2023-08-17T05:21:07;99504.28;;;22.28;89.14
42603;BME280;28233;55.748;48.752;2023-08-17T05:23:10;99495.09;;;22.31;88.23
42603;BME280;28233;55.748;48.752;2023-08-17T05:25:13;99497.09;;;22.42;88.24
42603;BME280;28233;55.748;48.752;2023-08-17T05:27:15;99515.06;;;22.48;87.88
42603;BME280;28233;55.748;48.752;2023-08-17T05:29:19;99507.06;;;22.53;86.83
42603;BME280;28233;55.748;48.752;2023-08-17T05:31:21;99517.47;;;22.60;86.90
42603;BME280;28233;55.748;48.752;2023-08-17T05:33:24;99516.63;;;22.67;86.26
42603;BME280;28233;55.748;48.752;2023-08-17T05:35:27;99518.59;;;22.73;85.39
42603;BME280;28233;55.748;48.752;2023-08-17T05:37:30;99515.38;;;22.78;85.46
42603;BME280;28233;55.748;48.752;2023-08-17T05:39:33;99521.78;;;22.86;84.91
42603;BME280;28233;55.748;48.752;2023-08-17T05:41:37;99523.34;;;22.94;84.00
42603;BME280;28233;55.748;48.752;2023-08-17T05:43:40;99518.97;;;23.00;83.47
42603;BME280;28233;55.748;48.752;2023-08-17T05:45:43;99512.53;;;23.07;83.30
42603;BME280;28233;55.748;48.752;2023-08-17T05:47:46;99530.91;;;23.15;82.55
42603;BME280;28233;55.748;48.752;2023-08-17T05:49:49;99531.66;;;23.23;82.80
42603;BME280;28233;55.748;48.752;2023-08-17T05:51:52;99530.03;;;23.29;81.82
42603;BME280;28233;55.748;48.752;2023-08-17T05:53:55;99530.41;;;23.35;81.43
42603;BME280;28233;55.748;48.752;2023-08-17T05:55:58;99524.75;;;23.42;81.58
42603;BME280;28233;55.748;48.752;2023-08-17T05:58:01;99531.16;;;23.50;81.95
42603;BME280;28233;55.748;48.752;2023-08-17T06:00:06;99525.94;;;23.52;80.83
42603;BME280;28233;55.748;48.752;2023-08-17T06:02:12;99523.88;;;23.59;80.62
42603;BME280;28233;55.748;48.752;2023-08-17T06:04:15;99531.84;;;23.64;80.27
42603;BME280;28233;55.748;48.752;2023-08-17T06:06:18;99527.78;;;23.73;79.17
42603;BME280;28233;55.748;48.752;2023-08-17T06:08:20;99534.59;;;23.79;78.34
42603;BME280;28233;55.748;48.752;2023-08-17T06:10:24;99534.53;;;23.86;78.25
42603;BME280;28233;55.748;48.752;2023-08-17T06:12:29;99528.47;;;23.91;77.21
42603;BME280;28233;55.748;48.752;2023-08-17T06:14:33;99527.22;;;23.99;77.74
42603;BME280;28233;55.748;48.752;2023-08-17T06:16:36;99536.78;;;24.05;77.47
42603;BME280;28233;55.748;48.752;2023-08-17T06:18:39;99530.72;;;24.14;76.84
42603;BME280;28233;55.748;48.752;2023-08-17T06:20:42;99534.25;;;24.22;75.97
42603;BME280;28233;55.748;48.752;2023-08-17T06:22:46;99541.41;;;24.30;75.32
42603;BME280;28233;55.748;48.752;2023-08-17T06:24:49;99547.81;;;24.34;74.35
42603;BME280;28233;55.748;48.752;2023-08-17T06:26:52;99537.31;;;24.38;74.57
42603;BME280;28233;55.748;48.752;2023-08-17T06:28:55;99545.72;;;24.42;72.98
42603;BME280;28233;55.748;48.752;2023-08-17T06:30:58;99547.25;;;24.50;72.96
42603;BME280;28233;55.748;48.752;2023-08-17T06:33:00;99546.78;;;24.59;71.38
42603;BME280;28233;55.748;48.752;2023-08-17T06:35:03;99550.75;;;24.65;71.71
42603;BME280;28233;55.748;48.752;2023-08-17T06:37:06;99540.63;;;24.71;70.44
42603;BME280;28233;55.748;48.752;2023-08-17T06:39:09;99543.03;;;24.73;69.74
42603;BME280;28233;55.748;48.752;2023-08-17T06:41:13;99541.00;;;24.73;67.40
42603;BME280;28233;55.748;48.752;2023-08-17T06:43:16;99551.00;;;24.78;67.48
42603;BME280;28233;55.748;48.752;2023-08-17T06:45:20;99551.78;;;24.82;67.67
42603;BME280;28233;55.748;48.752;2023-08-17T06:47:25;99548.50;;;24.87;67.45
42603;BME280;28233;55.748;48.752;2023-08-17T06:49:30;99550.81;;;24.96;67.98
42603;BME280;28233;55.748;48.752;2023-08-17T06:51:33;99553.47;;;25.06;67.08
42603;BME280;28233;55.748;48.752;2023-08-17T06:53:36;99557.00;;;25.18;65.99
42603;BME280;28233;55.748;48.752;2023-08-17T06:55:39;99559.25;;;25.30;66.27
42603;BME280;28233;55.748;48.752;2023-08-17T06:57:42;99556.72;;;25.39;65.13
42603;BME280;28233;55.748;48.752;2023-08-17T06:59:45;99557.06;;;25.45;64.38
42603;BME280;28233;55.748;48.752;2023-08-17T07:01:48;99562.59;;;25.52;64.84
42603;BME280;28233;55.748;48.752;2023-08-17T07:03:51;99554.44;;;25.61;63.94
42603;BME280;28233;55.748;48.752;2023-08-17T07:05:54;99558.34;;;25.67;63.91
42603;BME280;28233;55.748;48.752;2023-08-17T07:07:57;99547.47;;;25.69;62.58
42603;BME280;28233;55.748;48.752;2023-08-17T07:10:00;99547.06;;;25.71;63.54
42603;BME280;28233;55.748;48.752;2023-08-17T07:12:06;99549.44;;;25.72;61.95
42603;BME280;28233;55.748;48.752;2023-08-17T07:14:09;99548.22;;;25.73;61.93
42603;BME280;28233;55.748;48.752;2023-08-17T07:16:13;99553.34;;;25.82;64.10
42603;BME280;28233;55.748;48.752;2023-08-17T07:18:16;99545.16;;;25.91;62.48
42603;BME280;28233;55.748;48.752;2023-08-17T07:20:18;99550.31;;;25.97;62.84
42603;BME280;28233;55.748;48.752;2023-08-17T07:22:21;99548.06;;;26.11;63.39
42603;BME280;28233;55.748;48.752;2023-08-17T07:24:24;99549.13;;;26.21;61.98
42603;BME280;28233;55.748;48.752;2023-08-17T07:26:27;99548.56;;;26.30;61.85
42603;BME280;28233;55.748;48.752;2023-08-17T07:28:30;99550.91;;;26.35;61.62
42603;BME280;28233;55.748;48.752;2023-08-17T07:30:32;99549.53;;;26.43;62.63
42603;BME280;28233;55.748;48.752;2023-08-17T07:32:35;99541.78;;;26.51;61.20
42603;BME280;28233;55.748;48.752;2023-08-17T07:34:38;99540.53;;;26.52;59.14
42603;BME280;28233;55.748;48.752;2023-08-17T07:36:41;99547.72;;;26.56;57.61
42603;BME280;28233;55.748;48.752;2023-08-17T07:38:44;99546.06;;;26.59;59.23
42603;BME280;28233;55.748;48.752;2023-08-17T07:40:47;99541.09;;;26.67;58.12
42603;BME280;28233;55.748;48.752;2023-08-17T07:42:49;99544.09;;;26.80;58.57
42603;BME280;28233;55.748;48.752;2023-08-17T07:44:52;99540.75;;;26.85;57.50
42603;BME280;28233;55.748;48.752;2023-08-17T07:46:55;99549.06;;;26.92;56.86
42603;BME280;28233;55.748;48.752;2023-08-17T07:48:58;99541.72;;;26.98;55.97
42603;BME280;28233;55.748;48.752;2023-08-17T07:51:01;99539.19;;;27.04;55.40
42603;BME280;28233;55.748;48.752;2023-08-17T07:53:04;99542.22;;;27.13;55.69
42603;BME280;28233;55.748;48.752;2023-08-17T07:55:07;99538.09;;;27.17;54.71
42603;BME280;28233;55.748;48.752;2023-08-17T07:57:10;99537.25;;;27.20;54.87
42603;BME280;28233;55.748;48.752;2023-08-17T07:59:13;99538.25;;;27.30;54.34
42603;BME280;28233;55.748;48.752;2023-08-17T08:01:16;99534.84;;;27.39;53.84
42603;BME280;28233;55.748;48.752;2023-08-17T08:03:18;99538.13;;;27.54;53.48
42603;BME280;28233;55.748;48.752;2023-08-17T08:05:21;99541.25;;;27.59;53.27
42603;BME280;28233;55.748;48.752;2023-08-17T08:07:24;99549.13;;;27.68;54.26
42603;BME280;28233;55.748;48.752;2023-08-17T08:09:27;99544.09;;;27.76;52.14
42603;BME280;28233;55.748;48.752;2023-08-17T08:11:30;99541.19;;;27.79;50.95
42603;BME280;28233;55.748;48.752;2023-08-17T08:13:33;99546.38;;;27.85;48.49
42603;BME280;28233;55.748;48.752;2023-08-17T08:15:36;99543.00;;;27.90;49.23
42603;BME280;28233;55.748;48.752;2023-08-17T08:17:39;99539.66;;;27.95;49.40
42603;BME280;28233;55.748;48.752;2023-08-17T08:19:43;99540.72;;;28.01;48.28
42603;BME280;28233;55.748;48.752;2023-08-17T08:21:46;99536.13;;;28.07;49.66
42603;BME280;28233;55.748;48.752;2023-08-17T08:23:48;99536.22;;;28.20;49.34
42603;BME280;28233;55.748;48.752;2023-08-17T08:25:51;99528.91;;;28.22;48.61
42603;BME280;28233;55.748;48.752;2023-08-17T08:27:54;99543.97;;;28.32;47.85
42603;BME280;28233;55.748;48.752;2023-08-17T08:29:57;99545.13;;;28.35;47.71
42603;BME280;28233;55.748;48.752;2023-08-17T08:32:02;99541.31;;;28.41;46.50
42603;BME280;28233;55.748;48.752;2023-08-17T08:34:06;99544.50;;;28.43;46.01
42603;BME280;28233;55.748;48.752;2023-08-17T08:36:09;99542.38;;;28.48;46.22
42603;BME280;28233;55.748;48.752;2023-08-17T08:38:13;99547.19;;;28.51;47.26
42603;BME280;28233;55.748;48.752;2023-08-17T08:40:17;99543.03;;;28.55;46.78
42603;BME280;28233;55.748;48.752;2023-08-17T08:42:21;99533.53;;;28.62;47.36
42603;BME280;28233;55.748;48.752;2023-08-17T08:44:25;99532.81;;;28.74;46.29
42603;BME280;28233;55.748;48.752;2023-08-17T08:46:30;99539.06;;;28.82;45.67
42603;BME280;28233;55.748;48.752;2023-08-17T08:48:35;99537.97;;;28.92;46.29
42603;BME280;28233;55.748;48.752;2023-08-17T08:50:41;99541.72;;;29.02;45.98
42603;BME280;28233;55.748;48.752;2023-08-17T08:52:59;99542.00;;;29.07;44.28
42603;BME280;28233;55.748;48.752;2023-08-17T08:55:15;99550.38;;;29.11;44.08
42603;BME280;28233;55.748;48.752;2023-08-17T08:57:21;99541.03;;;29.14;44.28
42603;BME280;28233;55.748;48.752;2023-08-17T08:59:25;99542.16;;;29.17;43.95
42603;BME280;28233;55.748;48.752;2023-08-17T09:01:32;99546.34;;;29.25;44.22
42603;BME280;28233;55.748;48.752;2023-08-17T09:03:36;99546.38;;;29.38;44.38
42603;BME280;28233;55.748;48.752;2023-08-17T09:05:45;99543.34;;;29.45;42.99
42603;BME280;28233;55.748;48.752;2023-08-17T09:07:53;99543.34;;;29.58;43.76
42603;BME280;28233;55.748;48.752;2023-08-17T09:09:59;99541.19;;;29.62;43.47
42603;BME280;28233;55.748;48.752;2023-08-17T09:12:02;99542.59;;;29.70;43.46
42603;BME280;28233;55.748;48.752;2023-08-17T09:14:06;99547.72;;;29.75;42.37
42603;BME280;28233;55.748;48.752;2023-08-17T09:16:09;99542.69;;;29.79;41.66
42603;BME280;28233;55.748;48.752;2023-08-17T09:18:12;99537.94;;;29.76;41.62
42603;BME280;28233;55.748;48.752;2023-08-17T09:20:36;99541.00;;;29.82;43.10
42603;BME280;28233;55.748;48.752;2023-08-17T09:22:42;99537.16;;;29.88;43.96
42603;BME280;28233;55.748;48.752;2023-08-17T09:24:47;99532.03;;;29.96;42.52
42603;BME280;28233;55.748;48.752;2023-08-17T09:26:50;99528.66;;;30.01;42.66
42603;BME280;28233;55.748;48.752;2023-08-17T09:28:53;99535.78;;;30.06;42.41
42603;BME280;28233;55.748;48.752;2023-08-17T09:31:02;99544.50;;;30.11;42.63
42603;BME280;28233;55.748;48.752;2023-08-17T09:33:08;99541.44;;;30.19;42.45
42603;BME280;28233;55.748;48.752;2023-08-17T09:35:12;99536.44;;;30.23;41.94
42603;BME280;28233;55.748;48.752;2023-08-17T09:37:15;99534.72;;;30.25;41.45
42603;BME280;28233;55.748;48.752;2023-08-17T09:39:18;99530.28;;;30.24;41.45
42603;BME280;28233;55.748;48.752;2023-08-17T09:41:21;99543.47;;;30.31;41.29
42603;BME280;28233;55.748;48.752;2023-08-17T09:43:29;99538.38;;;30.39;41.44
42603;BME280;28233;55.748;48.752;2023-08-17T09:45:38;99537.13;;;30.40;40.38
42603;BME280;28233;55.748;48.752;2023-08-17T09:47:42;99538.38;;;30.39;40.63
42603;BME280;28233;55.748;48.752;2023-08-17T09:49:49;99535.31;;;30.33;39.77
42603;BME280;28233;55.748;48.752;2023-08-17T09:51:53;99532.22;;;30.40;40.41
42603;BME280;28233;55.748;48.752;2023-08-17T09:53:56;99536.06;;;30.46;40.94
42603;BME280;28233;55.748;48.752;2023-08-17T09:56:02;99537.88;;;30.53;40.69
42603;BME280;28233;55.748;48.752;2023-08-17T09:58:05;99529.91;;;30.61;39.95
42603;BME280;28233;55.748;48.752;2023-08-17T10:00:08;99540.66;;;30.66;40.90
42603;BME280;28233;55.748;48.752;2023-08-17T10:02:19;99534.88;;;30.69;39.29
42603;BME280;28233;55.748;48.752;2023-08-17T10:04:23;99528.38;;;30.69;39.61
42603;BME280;28233;55.748;48.752;2023-08-17T10:06:28;99526.22;;;30.73;39.78
42603;BME280;28233;55.748;48.752;2023-08-17T10:08:38;99528.34;;;30.82;39.97
42603;BME280;28233;55.748;48.752;2023-08-17T10:10:44;99531.06;;;30.85;39.33
42603;BME280;28233;55.748;48.752;2023-08-17T10:15:15;99537.03;;;31.00;39.89
42603;BME280;28233;55.748;48.752;2023-08-17T10:17:55;99533.00;;;31.10;39.25
42603;BME280;28233;55.748;48.752;2023-08-17T10:19:58;99537.28;;;31.15;38.79
42603;BME280;28233;55.748;48.752;2023-08-17T10:22:20;99536.56;;;31.24;39.03
42603;BME280;28233;55.748;48.752;2023-08-17T10:24:26;99534.09;;;31.35;39.20
42603;BME280;28233;55.748;48.752;2023-08-17T10:26:30;99537.00;;;31.44;37.50
42603;BME280;28233;55.748;48.752;2023-08-17T10:28:34;99530.41;;;31.47;37.14
42603;BME280;28233;55.748;48.752;2023-08-17T10:30:37;99540.16;;;31.46;35.76
42603;BME280;28233;55.748;48.752;2023-08-17T10:32:41;99538.78;;;31.51;36.18
42603;BME280;28233;55.748;48.752;2023-08-17T10:34:48;99538.50;;;31.58;36.54
42603;BME280;28233;55.748;48.752;2023-08-17T10:36:52;99527.97;;;31.68;35.65
42603;BME280;28233;55.748;48.752;2023-08-17T10:39:20;99532.44;;;31.78;36.25
42603;BME280;28233;55.748;48.752;2023-08-17T10:41:26;99538.28;;;31.84;36.42
42603;BME280;28233;55.748;48.752;2023-08-17T10:43:33;99534.84;;;31.89;35.91
42603;BME280;28233;55.748;48.752;2023-08-17T10:45:37;99542.66;;;31.97;36.64
42603;BME280;28233;55.748;48.752;2023-08-17T10:47:42;99535.41;;;32.06;36.16
42603;BME280;28233;55.748;48.752;2023-08-17T10:49:45;99533.06;;;32.13;35.41
42603;BME280;28233;55.748;48.752;2023-08-17T10:52:03;99540.03;;;32.21;34.92
42603;BME280;28233;55.748;48.752;2023-08-17T10:54:06;99540.34;;;32.23;34.74
42603;BME280;28233;55.748;48.752;2023-08-17T10:56:13;99530.72;;;32.30;34.75